鹿児島空港の過去48時間の天気

鹿児島空港 (Kagoshima)

現在時刻: 10/20 03:41 JST (10/19 18:41 UTC) 以下の時間は現地時間です。

過去48時間のMETAR気象情報
時間 風向 風速(m/s) 視程 気温(℃) 湿度(%) 気圧(hPa) 天気現象
19 21:00 3 10km以上 14 88 1020
19 20:00 北北西 4 10km以上 15 82 1020
19 19:00 北北西 4 10km以上 15 82 1019
19 18:00 北北西 3 10km以上 15 82 1018
19 17:00 北北西 5 10km以上 17 68 1018
19 16:00 北北西 5 10km以上 18 64 1018
19 15:00 北北西 6 10km以上 19 64 1018
19 14:00 北北西 7 10km以上 19 56 1017
19 13:00 北北西 6 10km以上 21 46 1018
19 12:00 北北西 5 10km以上 19 52 1019
19 11:00 北北西 6 10km以上 19 52 1019
19 10:00 北北西 5 10km以上 17 63 1020
19 09:00 北西 2 10km以上 15 77 1020
19 08:00 2 10km以上 13 82 1019
19 07:00 北北西 3 10km以上 11 82 1019
19 06:00 北北西 3 10km以上 11 82 1018
18 21:00 北北西 2 10km以上 14 82 1017
18 20:00 北北東 2 10km以上 15 82 1017
18 19:00 北西 5 10km以上 16 77 1016
18 18:00 北西 5 10km以上 18 68 1016
18 17:00 北西 5 10km以上 19 60 1015
18 16:00 北西 6 10km以上 21 53 1015
18 15:00 北西 6 10km以上 21 49 1014
18 14:00 西北西 5 10km以上 22 41 1014
18 13:00 西北西 4 10km以上 23 47 1014
18 12:00 北北西 4 10km以上 21 49 1015
18 11:00 北北西 4 10km以上 20 53 1015
18 10:00 北北西 4 10km以上 19 60 1016
18 09:00 北北西 4 10km以上 18 64 1015
18 08:00 北北西 3 10km以上 16 77 1015
18 07:00 北北西 4 10km以上 12 100 1014 散在した霧
18 06:00 4 10km以上 11 100 1014 散在した霧
RJFK 191200Z 35005KT 9999 FEW020 BKN/// 14/12 Q1020
RJFK 191100Z 34007KT 9999 FEW020 BKN/// 15/12 Q1020
RJFK 191000Z 34007KT 9999 FEW020 BKN/// 15/12 Q1019 RMK 1CU020 A3010
RJFK 190900Z 34005KT 9999 FEW020 BKN/// 15/12 Q1018
RJFK 190800Z 33010KT 9999 FEW020 BKN/// 17/11 Q1018 RMK 1CU020 A3007
RJFK 190700Z 34009KT 310V020 9999 FEW030 BKN/// 18/11 Q1018
RJFK 190600Z 34012KT 9999 FEW040 SCT050 BKN/// 19/12 Q1018
RJFK 190500Z 33013KT 9999 FEW040 BKN050 BKN/// 19/10 Q1017
RJFK 190400Z 33012KT 300V010 9999 FEW040 BKN/// 21/09 Q1018
RJFK 190300Z 34010KT 9999 FEW030 SCT/// 19/09 Q1019 RMK 1CU030 A3009 VOLCANIC ASH CLOUD S
RJFK 190200Z 34012KT 320V020 9999 FEW030 19/09 Q1019 RMK 2CU030 A3011 VOLCANIC ASH CLOUD S
RJFK 190100Z 34010KT 310V020 9999 FEW030 SCT/// 17/10 Q1020
RJFK 190000Z 32004KT 290V360 9999 FEW030 SCT/// 15/11 Q1020 RMK 1CU030 A3013
RJFK 182300Z 35004KT 9999 FEW030 13/10 Q1019 RMK 1CU030 A3011
RJFK 182200Z 33005KT 9999 FEW030 11/08 Q1019 RMK 1CU030 A3009
RJFK 182100Z 34006KT 9999 FEW030 11/08 Q1018 RMK 1CU030 A3008
RJFK 181200Z 34003KT 9999 FEW040 14/11 Q1017 RMK 1CU040 A3005
RJFK 181100Z 03003KT 340V070 9999 FEW040 15/12 Q1017 RMK 1CU040 A3004
RJFK 181000Z 31009KT 9999 FEW040 16/12 Q1016 RMK 1CU040 A3003
RJFK 180900Z 31009KT 9999 FEW040 18/12 Q1016 RMK 1CU040 A3000
RJFK 180800Z 31010KT 9999 FEW040 19/11 Q1015 RMK 1CU040 A2999
RJFK 180700Z 32012KT 9999 FEW040 21/11 Q1015 RMK 1CU040 A2998
RJFK 180600Z 31011KT 9999 FEW040 21/10 Q1014 RMK 1CU040 A2996
RJFK 180500Z 30010KT 9999 FEW040 22/08 Q1014 RMK 1CU040 A2995
RJFK 180400Z 30007KT 260V360 9999 FEW040 23/11 Q1014 RMK 1CU040 A2996
RJFK 180300Z 34007KT 300V060 9999 FEW040 21/10 Q1015 RMK 1CU040 A2998
RJFK 180200Z 34007KT 300V020 9999 FEW040 20/10 Q1015 RMK 1CU040 A3000
RJFK 180100Z 33008KT 9999 FEW040 19/11 Q1016 RMK 1CU040 A3000
RJFK 180000Z 33007KT CAVOK 18/11 Q1015 RMK A3000
RJFK 172300Z 33006KT CAVOK 16/12 Q1015 RMK A2999
RJFK 172200Z 34007KT 9999 BCFG FEW040 12/12 Q1014 RMK 1CU040 A2997 FG N-NE
RJFK 172100Z 35007KT 9999 BCFG FEW040 11/11 Q1014 RMK 1CU040 A2996 FG N-NE